Time;durP1;ratioP1;P1;durP2;ratioP2;P2;SDS_P1;SDS_P2;PMS_P1;PMS_P2;Temp;Humidity;BMP_temperature;BMP_pressure;BME280_temperature;BME280_humidity;BME280_pressure;Samples;Min_cycle;Max_cycle;Signal;HPM_P1;HPM_P2
2024/01/21 00:01:15;;;;;;;21.48;11.82;;;;;;;0.26;88.93;100999.41;5014928;28;20018;-80
2024/01/21 00:03:41;;;;;;;22.42;12.07;;;;;;;0.32;89.17;101008.03;5014465;28;20062;-80
2024/01/21 00:06:06;;;;;;;27.65;15.13;;;;;;;0.35;89.20;101022.63;5014459;28;20049;-80
2024/01/21 00:08:32;;;;;;;30.77;16.65;;;;;;;0.37;88.49;101014.09;5014729;28;20022;-80
2024/01/21 00:10:57;;;;;;;26.65;14.13;;;;;;;0.16;88.28;100983.84;5014009;28;20038;-80
2024/01/21 00:13:22;;;;;;;26.85;10.90;;;;;;;0.39;88.36;101017.56;5014534;28;20361;-80
2024/01/21 00:15:48;;;;;;;21.48;10.82;;;;;;;0.40;88.42;101015.88;5014253;28;20105;-80
2024/01/21 00:18:13;;;;;;;19.17;9.20;;;;;;;0.35;88.28;101008.09;5014948;28;20037;-80
2024/01/21 00:20:39;;;;;;;21.58;10.52;;;;;;;0.26;87.88;101010.50;5014544;28;20010;-80
2024/01/21 00:23:04;;;;;;;22.17;11.27;;;;;;;0.20;88.13;101003.56;5014024;28;20022;-80
2024/01/21 00:25:29;;;;;;;18.55;10.90;;;;;;;0.29;88.37;101020.78;5014546;28;20028;-80
2024/01/21 00:27:55;;;;;;;16.00;9.32;;;;;;;0.29;88.26;101019.94;5014678;28;20010;-80
2024/01/21 00:30:21;;;;;;;22.23;10.60;;;;;;;0.27;88.17;101016.50;5014371;28;20018;-80
2024/01/21 00:32:46;;;;;;;17.75;9.55;;;;;;;0.38;87.73;101030.34;5014275;28;20029;-80
2024/01/21 00:35:12;;;;;;;18.60;8.98;;;;;;;0.30;87.92;101027.66;5014418;28;20285;-80
2024/01/21 00:37:38;;;;;;;17.27;9.00;;;;;;;0.34;87.95;101036.25;5014431;28;20033;-80
2024/01/21 00:40:05;;;;;;;20.23;9.70;;;;;;;0.32;87.50;101028.53;5013975;28;21029;-80
2024/01/21 00:42:30;;;;;;;25.42;12.43;;;;;;;0.31;87.76;101029.38;5014208;28;20022;-80
2024/01/21 00:44:56;;;;;;;20.38;10.95;;;;;;;0.36;87.86;101038.00;5013945;28;20033;-80
2024/01/21 00:47:21;;;;;;;25.73;11.57;;;;;;;0.40;87.87;101042.34;5014214;28;20040;-80
2024/01/21 00:49:47;;;;;;;22.05;10.73;;;;;;;0.34;87.59;101037.13;5014221;28;20018;-80
2024/01/21 00:52:13;;;;;;;22.15;10.13;;;;;;;0.40;87.89;101037.22;5014194;28;20053;-80
2024/01/21 00:54:38;;;;;;;16.42;7.93;;;;;;;0.44;87.70;101044.13;5014041;28;20030;-80
2024/01/21 00:57:03;;;;;;;15.85;8.55;;;;;;;0.44;87.72;101043.28;5013513;28;20080;-80
2024/01/21 00:59:29;;;;;;;16.88;8.60;;;;;;;0.42;87.70;101048.38;5013658;28;20044;-80
2024/01/21 01:01:54;;;;;;;12.18;7.13;;;;;;;0.32;87.67;101038.78;5013495;28;20020;-80
2024/01/21 01:04:20;;;;;;;13.23;7.15;;;;;;;0.36;88.04;101048.25;5014042;28;20381;-80
2024/01/21 01:06:45;;;;;;;11.70;7.68;;;;;;;0.39;87.84;101056.00;5014034;28;20021;-80
2024/01/21 01:09:10;;;;;;;17.65;8.73;;;;;;;0.34;87.54;101052.50;5013606;28;20064;-80
2024/01/21 01:11:37;;;;;;;15.77;8.82;;;;;;;0.33;88.13;101050.75;5013327;28;20030;-80
2024/01/21 01:14:03;;;;;;;15.68;8.82;;;;;;;0.39;88.29;101057.72;5012582;28;20371;-80
2024/01/21 01:16:28;;;;;;;13.23;7.43;;;;;;;0.36;87.45;101044.84;5013350;28;20026;-80
2024/01/21 01:18:54;;;;;;;12.77;7.55;;;;;;;0.34;87.70;101052.50;5013268;28;20386;-80
2024/01/21 01:21:19;;;;;;;15.13;7.97;;;;;;;0.35;87.79;101053.38;5013163;28;20021;-80
2024/01/21 01:23:45;;;;;;;12.73;7.57;;;;;;;0.38;87.31;101053.41;5013196;28;20033;-80
2024/01/21 01:26:10;;;;;;;14.00;8.00;;;;;;;0.34;87.35;101036.25;5012984;28;20524;-80
2024/01/21 01:28:36;;;;;;;12.77;7.70;;;;;;;0.26;86.97;101036.13;5013165;28;20017;-80
2024/01/21 01:31:01;;;;;;;13.10;7.68;;;;;;;0.39;87.26;101053.44;5012943;28;20018;-80
2024/01/21 01:33:27;;;;;;;12.45;7.35;;;;;;;0.42;87.61;101056.06;5013004;28;20453;-80
2024/01/21 01:35:52;;;;;;;14.32;7.88;;;;;;;0.34;87.29;101041.38;5012809;28;20545;-80
2024/01/21 01:38:18;;;;;;;15.02;8.15;;;;;;;0.42;87.62;101050.06;5013158;28;20079;-80
2024/01/21 01:40:43;;;;;;;11.00;7.25;;;;;;;0.44;87.51;101053.53;5013647;28;20045;-80
2024/01/21 01:43:09;;;;;;;14.52;8.27;;;;;;;0.44;87.85;101058.66;5013119;28;20049;-80
2024/01/21 01:45:35;;;;;;;14.45;8.32;;;;;;;0.42;87.81;101057.75;5013107;28;20026;-80
2024/01/21 01:48:02;;;;;;;16.80;9.98;;;;;;;0.40;87.57;101050.03;5012732;28;20060;-80
2024/01/21 01:50:29;;;;;;;18.08;10.35;;;;;;;0.41;87.77;101045.78;5013091;28;20060;-80
2024/01/21 01:52:55;;;;;;;16.58;9.73;;;;;;;0.40;88.22;101050.03;5012879;28;20025;-80
2024/01/21 01:55:21;;;;;;;16.75;9.25;;;;;;;0.34;88.18;101039.69;5012990;28;20056;-80
2024/01/21 01:57:47;;;;;;;15.45;8.93;;;;;;;0.43;88.36;101041.56;5013081;28;20050;-80
2024/01/21 02:00:13;;;;;;;17.85;9.77;;;;;;;0.22;87.71;101006.16;5013002;28;20575;-80
2024/01/21 02:02:42;;;;;;;15.85;9.73;;;;;;;0.38;87.75;101049.16;5013348;28;20377;-80
2024/01/21 02:05:08;;;;;;;14.38;8.57;;;;;;;0.35;87.63;101046.53;5013186;28;20018;-80
2024/01/21 02:07:34;;;;;;;16.65;8.27;;;;;;;0.31;87.67;101049.03;5013033;28;20022;-80
2024/01/21 02:10:01;;;;;;;16.85;9.82;;;;;;;0.11;87.63;101038.41;5012656;28;20084;-80
2024/01/21 02:39:30;;;;;;;22.02;12.68;;;;;;;-0.67;88.87;101063.34;5016689;28;20144;-80
2024/01/21 02:41:55;;;;;;;26.63;16.25;;;;;;;-0.76;88.66;101065.66;5016059;28;20018;-80
2024/01/21 02:44:20;;;;;;;27.38;16.38;;;;;;;-0.84;89.17;101068.09;5016138;28;20033;-80
2024/01/21 02:46:46;;;;;;;23.92;14.45;;;;;;;-1.03;89.36;101036.09;5016303;28;20488;-80
2024/01/21 02:49:11;;;;;;;27.67;14.85;;;;;;;-0.92;89.17;101056.81;5016255;28;20465;-80
2024/01/21 02:51:37;;;;;;;28.45;15.57;;;;;;;-0.93;89.73;101062.75;5016292;28;20458;-80
2024/01/21 02:54:02;;;;;;;27.98;14.93;;;;;;;-0.94;89.76;101067.81;5015909;28;20465;-80
2024/01/21 02:56:27;;;;;;;25.52;15.65;;;;;;;-1.16;89.34;101046.03;5016316;28;20036;-80
2024/01/21 02:58:53;;;;;;;28.73;14.25;;;;;;;-1.16;89.30;101069.03;5016171;28;20120;-80
2024/01/21 03:01:19;;;;;;;26.20;14.30;;;;;;;-1.20;89.68;101075.75;5016088;28;20048;-80
2024/01/21 03:03:45;;;;;;;21.70;13.27;;;;;;;-1.17;90.21;101074.97;5016297;28;20144;-80
2024/01/21 03:06:10;;;;;;;26.75;14.98;;;;;;;-1.20;89.38;101074.91;5015966;28;20121;-80
2024/01/21 03:08:36;;;;;;;29.80;16.67;;;;;;;-1.28;90.33;101082.38;5016075;28;20022;-80
2024/01/21 03:11:02;;;;;;;27.35;17.45;;;;;;;-1.45;90.08;101058.09;5015399;28;20072;-80
2024/01/21 03:13:28;;;;;;;27.13;17.13;;;;;;;-1.42;90.54;101082.03;5016022;28;20029;-80
2024/01/21 03:15:53;;;;;;;25.08;16.98;;;;;;;-1.51;90.79;101079.25;5016179;28;20030;-80
2024/01/21 03:18:19;;;;;;;29.60;17.42;;;;;;;-1.59;90.73;101084.19;5015933;28;20072;-80
2024/01/21 03:20:44;;;;;;;27.70;17.02;;;;;;;-1.60;90.92;101085.00;5015927;28;20100;-80
2024/01/21 03:23:10;;;;;;;29.48;17.60;;;;;;;-1.66;91.37;101082.28;5015657;28;20037;-80
2024/01/21 03:36:00;;;;;;;29.33;17.27;;;;;;;-2.03;91.17;101053.22;5015824;28;20422;-80
2024/01/21 03:38:25;;;;;;;30.20;17.40;;;;;;;-2.03;91.42;101063.41;5014614;28;20469;-80
2024/01/21 03:40:51;;;;;;;31.58;17.35;;;;;;;-2.07;91.09;101074.38;5015339;28;20018;-80
2024/01/21 03:43:17;;;;;;;31.50;16.88;;;;;;;-2.05;91.90;101088.06;5014899;28;20021;-80
2024/01/21 03:45:43;;;;;;;28.95;17.38;;;;;;;-2.12;91.69;101082.75;5015286;28;20364;-80
2024/01/21 03:48:08;;;;;;;31.90;17.67;;;;;;;-2.11;91.80;101090.44;5014876;28;20034;-80
2024/01/21 03:50:34;;;;;;;27.35;15.93;;;;;;;-2.17;92.80;101087.72;5015054;28;20018;-80
2024/01/21 03:59:43;;;;;;;33.40;17.88;;;;;;;-2.20;92.28;101079.97;5015395;28;20114;-80
2024/01/21 04:02:08;;;;;;;32.10;17.67;;;;;;;-2.18;92.39;101087.69;5014940;28;20100;-80
2024/01/21 04:04:33;;;;;;;37.58;19.95;;;;;;;-2.18;92.00;101078.34;5015191;28;20021;-80
2024/01/21 04:06:59;;;;;;;32.33;19.00;;;;;;;-2.18;91.47;101088.53;5014868;28;20033;-80
2024/01/21 04:09:33;;;;;;;33.72;18.15;;;;;;;-2.26;91.23;101085.78;5008882;28;20021;-80
2024/01/21 04:11:59;;;;;;;36.22;17.92;;;;;;;-2.34;91.02;101084.69;5014459;28;20049;-80
2024/01/21 04:14:38;;;;;;;35.60;18.58;;;;;;;-2.45;91.54;101068.19;5014661;28;20044;-80
2024/01/21 04:17:03;;;;;;;30.05;17.25;;;;;;;-2.47;91.89;101064.75;5014281;28;20457;-80
2024/01/21 04:19:28;;;;;;;40.05;23.90;;;;;;;-2.39;92.10;101072.63;5014737;28;20072;-79
2024/01/21 04:21:54;;;;;;;44.45;24.55;;;;;;;-2.45;92.12;101069.88;5014676;28;20026;-80
2024/01/21 04:24:19;;;;;;;47.22;25.02;;;;;;;-2.52;91.31;101064.63;5014704;28;20037;-80
2024/01/21 04:26:44;;;;;;;42.47;21.92;;;;;;;-2.58;91.80;101072.06;5014688;28;20504;-80
2024/01/21 04:29:10;;;;;;;36.05;18.75;;;;;;;-2.59;91.63;101070.34;5014611;28;20076;-80
2024/01/21 04:31:35;;;;;;;31.55;17.48;;;;;;;-2.57;92.20;101072.94;5014731;28;20365;-79
2024/01/21 04:34:01;;;;;;;36.55;18.83;;;;;;;-2.60;92.35;101077.97;5014265;28;20101;-80
2024/01/21 04:36:26;;;;;;;44.80;22.55;;;;;;;-2.74;92.10;101056.28;5014495;28;20416;-80
2024/01/21 04:38:53;;;;;;;51.92;23.25;;;;;;;-2.65;92.29;101072.75;5014305;28;20017;-80
2024/01/21 04:41:19;;;;;;;63.17;29.42;;;;;;;-2.74;91.76;101049.47;5013952;28;20049;-80
2024/01/21 04:43:44;;;;;;;72.60;31.25;;;;;;;-2.81;92.00;101053.56;5014201;28;20049;-79
2024/01/21 04:46:09;;;;;;;114.57;42.08;;;;;;;-2.62;92.27;101077.91;5013808;28;20108;-80
2024/01/21 04:48:35;;;;;;;74.05;31.75;;;;;;;-2.56;92.10;101077.25;5013053;28;20074;-80
2024/01/21 04:51:00;;;;;;;61.65;27.40;;;;;;;-2.53;91.96;101073.09;5013782;28;20514;-79
2024/01/21 04:53:26;;;;;;;76.60;31.10;;;;;;;-2.48;91.20;101068.13;5013878;28;20048;-79
2024/01/21 04:55:51;;;;;;;70.65;30.30;;;;;;;-2.47;91.42;101076.66;5014133;28;20014;-80
2024/01/21 04:58:16;;;;;;;84.68;38.47;;;;;;;-2.44;91.01;101074.16;5014058;28;20100;-79
2024/01/21 05:00:42;;;;;;;92.35;39.53;;;;;;;-2.51;90.87;101068.03;5014165;28;20010;-79
2024/01/21 05:03:08;;;;;;;89.28;38.13;;;;;;;-2.48;91.17;101075.78;5014294;28;20088;-79
2024/01/21 05:05:34;;;;;;;109.10;42.10;;;;;;;-2.53;90.88;101069.66;5014552;28;20025;-78
2024/01/21 05:07:59;;;;;;;104.15;42.95;;;;;;;-2.56;90.75;101073.00;5018239;28;20018;-79
2024/01/21 05:10:24;;;;;;;102.43;41.30;;;;;;;-2.62;90.78;101070.25;5029475;28;20022;-81
2024/01/21 05:12:50;;;;;;;136.55;53.58;;;;;;;-2.65;91.12;101074.44;5030007;28;20022;-80
2024/01/21 05:15:15;;;;;;;132.90;52.28;;;;;;;-2.86;91.24;101054.25;5026175;28;20029;-80
2024/01/21 05:17:41;;;;;;;113.20;43.60;;;;;;;-2.84;91.27;101063.66;5014988;28;20018;-80
2024/01/21 05:20:08;;;;;;;111.95;44.58;;;;;;;-2.93;91.74;101044.69;5013479;28;20368;-81
2024/01/21 05:22:34;;;;;;;108.10;49.53;;;;;;;-2.93;92.07;101037.88;5013943;28;20408;-81
2024/01/21 05:24:59;;;;;;;114.47;52.78;;;;;;;-2.83;91.90;101050.09;5013521;28;20018;-81
2024/01/21 05:27:25;;;;;;;92.90;42.10;;;;;;;-2.84;92.47;101048.34;5013532;28;20093;-81
2024/01/21 05:29:50;;;;;;;100.70;48.28;;;;;;;-2.88;92.41;101048.22;5013427;28;20467;-80
2024/01/21 05:32:15;;;;;;;96.90;44.25;;;;;;;-2.97;92.57;101041.16;5013380;28;20021;-78
2024/01/21 05:34:41;;;;;;;91.15;41.55;;;;;;;-3.01;92.96;101032.56;5013094;28;20442;-78
2024/01/21 05:37:06;;;;;;;100.15;44.63;;;;;;;-2.96;92.82;101039.47;5012974;28;20032;-80
2024/01/21 05:39:32;;;;;;;103.50;44.42;;;;;;;-2.99;93.14;101034.28;5013175;28;20097;-80
2024/01/21 05:42:05;;;;;;;91.72;40.25;;;;;;;-2.99;93.61;101036.81;5013642;28;20024;-81
2024/01/21 05:44:31;;;;;;;92.78;40.10;;;;;;;-3.12;93.69;101013.53;5013432;28;20022;-78
2024/01/21 05:46:57;;;;;;;86.57;39.33;;;;;;;-3.04;94.07;101037.53;5013174;28;20030;-79
2024/01/21 05:49:23;;;;;;;97.20;42.85;;;;;;;-3.03;94.14;101034.22;5013127;28;20068;-81
2024/01/21 05:51:49;;;;;;;93.45;40.25;;;;;;;-3.10;94.48;101022.09;5013454;28;20100;-78
2024/01/21 05:54:15;;;;;;;87.25;38.13;;;;;;;-2.97;94.30;101046.25;5013038;28;20014;-81
2024/01/21 05:56:41;;;;;;;85.90;37.53;;;;;;;-2.95;94.87;101044.66;5013105;28;20029;-81
2024/01/21 05:59:06;;;;;;;76.80;33.35;;;;;;;-3.03;95.02;101029.09;5012971;28;20026;-80
2024/01/21 06:01:31;;;;;;;68.05;31.92;;;;;;;-2.94;95.13;101037.84;5012810;28;20245;-81
2024/01/21 06:03:57;;;;;;;75.90;32.13;;;;;;;-2.77;94.90;101045.19;5013342;28;20476;-80
2024/01/21 06:06:22;;;;;;;56.35;27.00;;;;;;;-2.76;94.79;101039.25;5012619;28;20093;-80
2024/01/21 06:08:48;;;;;;;54.80;27.10;;;;;;;-2.71;95.32;101051.28;5013214;28;20024;-81
2024/01/21 06:11:13;;;;;;;59.53;28.30;;;;;;;-2.80;95.23;101032.34;5012687;28;20417;-81
2024/01/21 06:13:38;;;;;;;60.35;28.83;;;;;;;-2.63;94.90;101053.22;5012969;28;20029;-81
2024/01/21 06:16:04;;;;;;;65.65;29.88;;;;;;;-2.63;94.80;101053.22;5013278;28;20021;-80
2024/01/21 06:18:30;;;;;;;48.92;27.00;;;;;;;-2.63;94.80;101049.81;5012709;28;20037;-80
2024/01/21 06:20:55;;;;;;;42.72;22.30;;;;;;;-2.66;94.82;101042.06;5012819;28;20468;-80
2024/01/21 06:23:21;;;;;;;49.83;26.77;;;;;;;-2.63;95.13;101052.38;5012518;28;20056;-80
2024/01/21 06:25:46;;;;;;;51.05;26.73;;;;;;;-2.71;96.00;101030.88;5012934;28;20018;-80
2024/01/21 06:28:11;;;;;;;61.15;31.02;;;;;;;-2.63;96.03;101062.56;5012592;28;20014;-80
2024/01/21 06:30:37;;;;;;;60.78;32.58;;;;;;;-2.83;95.82;101031.38;5012750;28;20393;-80
2024/01/21 06:33:02;;;;;;;52.05;27.85;;;;;;;-2.78;95.84;101050.25;5012682;28;20018;-80
2024/01/21 06:35:28;;;;;;;44.92;23.88;;;;;;;-2.69;96.61;101070.91;5012456;28;20041;-80
2024/01/21 06:37:54;;;;;;;51.40;27.77;;;;;;;-2.74;96.12;101066.47;5012443;28;20028;-80
2024/01/21 06:40:19;;;;;;;50.88;26.35;;;;;;;-2.65;97.07;101064.22;5012315;28;20018;-80
2024/01/21 06:42:45;;;;;;;44.58;25.52;;;;;;;-2.66;96.12;101062.47;5012705;28;20022;-80
2024/01/21 06:45:13;;;;;;;62.38;29.13;;;;;;;-2.61;96.83;101064.34;5012575;28;20022;-80
2024/01/21 06:47:40;;;;;;;67.32;32.83;;;;;;;-2.79;96.99;101045.94;5012664;28;20125;-80
2024/01/21 06:50:05;;;;;;;62.08;31.25;;;;;;;-2.77;96.79;101064.72;5012216;28;20029;-80
2024/01/21 06:52:31;;;;;;;75.38;33.15;;;;;;;-2.71;97.21;101051.28;5012289;28;20469;-80
2024/01/21 06:54:57;;;;;;;115.13;48.70;;;;;;;-2.74;97.66;101046.06;5012742;28;20105;-80
2024/01/21 06:57:22;;;;;;;126.95;58.70;;;;;;;-2.78;98.05;101051.09;5012348;28;20101;-80
2024/01/21 06:59:49;;;;;;;143.85;68.32;;;;;;;-2.77;97.99;101047.72;5012818;28;20022;-80
2024/01/21 07:02:15;;;;;;;111.20;53.30;;;;;;;-2.73;98.44;101051.25;5012145;28;20128;-80
2024/01/21 07:04:40;;;;;;;106.53;51.35;;;;;;;-2.82;98.46;101051.84;5012441;28;20073;-80
2024/01/21 07:07:05;;;;;;;74.78;37.10;;;;;;;-2.79;98.64;101056.13;5012490;28;20072;-80
2024/01/21 07:09:31;;;;;;;37.22;22.10;;;;;;;-2.74;98.65;101059.69;5012283;28;20456;-80
2024/01/21 07:11:56;;;;;;;60.10;27.95;;;;;;;-2.71;98.23;101053.81;5012587;28;20045;-80
2024/01/21 07:14:22;;;;;;;87.22;37.17;;;;;;;-2.75;98.59;101050.31;5015805;28;20017;-80
2024/01/21 07:16:47;;;;;;;128.63;52.30;;;;;;;-2.72;98.26;101050.41;5015913;28;20025;-80
2024/01/21 07:19:13;;;;;;;109.45;45.53;;;;;;;-2.78;98.77;101053.66;5015391;28;20454;-80
2024/01/21 07:21:40;;;;;;;124.15;50.13;;;;;;;-2.70;99.30;101063.19;5015803;28;20360;-80
2024/01/21 07:24:06;;;;;;;201.48;72.97;;;;;;;-2.73;99.64;101053.78;5015741;28;20389;-80
2024/01/21 07:26:31;;;;;;;147.85;57.35;;;;;;;-2.56;100.00;101046.63;5015536;28;20021;-79
2024/01/21 07:28:56;;;;;;;107.20;48.63;;;;;;;-2.33;100.00;101050.69;5015514;28;20018;-80
2024/01/21 07:31:22;;;;;;;87.82;37.03;;;;;;;-2.12;100.00;101050.41;5015284;28;20021;-80
2024/01/21 07:33:47;;;;;;;151.15;58.95;;;;;;;-1.83;100.00;101060.53;5015642;28;20026;-80
2024/01/21 07:36:13;;;;;;;120.85;48.97;;;;;;;-1.50;100.00;101050.31;5015268;28;20025;-80
2024/01/21 07:38:38;;;;;;;101.07;43.05;;;;;;;-1.34;99.87;101044.75;5015564;28;20109;-80
2024/01/21 07:41:03;;;;;;;73.03;34.88;;;;;;;-1.14;98.69;101060.53;4997846;28;20161;-80
2024/01/21 07:43:30;;;;;;;69.95;33.03;;;;;;;-1.18;97.90;101048.56;4997305;28;20028;-80
2024/01/21 07:45:55;;;;;;;56.40;29.67;;;;;;;-1.02;97.69;101059.97;5015468;28;20037;-80
2024/01/21 07:48:21;;;;;;;53.85;25.77;;;;;;;-1.00;97.67;101068.56;5014950;28;20032;-80
2024/01/21 07:50:47;;;;;;;48.78;24.92;;;;;;;-1.15;96.90;101047.75;5015174;28;20079;-80
2024/01/21 07:53:12;;;;;;;45.55;25.60;;;;;;;-1.10;97.18;101064.91;5014932;28;20488;-80
2024/01/21 07:55:37;;;;;;;51.53;24.85;;;;;;;-1.16;96.84;101062.22;5015397;28;20025;-80
2024/01/21 07:58:04;;;;;;;36.45;20.80;;;;;;;-1.24;97.02;101073.97;5014876;28;20508;-79
2024/01/21 08:00:29;;;;;;;35.38;19.10;;;;;;;-1.32;96.06;101068.66;5014785;28;20037;-80
2024/01/21 08:02:55;;;;;;;39.15;20.08;;;;;;;-1.44;96.30;101086.22;5014913;28;20097;-80
2024/01/21 08:05:20;;;;;;;41.22;20.42;;;;;;;-1.48;96.79;101073.34;5014647;28;20017;-80
2024/01/21 08:07:46;;;;;;;42.35;22.73;;;;;;;-1.45;97.54;101047.88;5014863;28;20014;-80
2024/01/21 08:10:12;;;;;;;41.35;21.55;;;;;;;-1.34;97.47;101036.25;5014734;28;20022;-80
2024/01/21 08:12:37;;;;;;;40.78;21.27;;;;;;;-0.98;97.52;101066.88;5014310;28;20121;-80
2024/01/21 08:15:03;;;;;;;38.10;20.13;;;;;;;-0.70;97.31;101067.53;5014836;28;20013;-79
2024/01/21 08:17:29;;;;;;;49.17;23.77;;;;;;;-0.47;95.95;101065.44;5014458;28;20022;-80
2024/01/21 08:19:54;;;;;;;40.55;21.73;;;;;;;-0.35;94.90;101066.56;5014947;28;20010;-80
2024/01/21 08:22:20;;;;;;;34.55;19.50;;;;;;;-0.12;94.56;101071.28;5014419;28;20018;-80
2024/01/21 08:24:45;;;;;;;39.30;19.48;;;;;;;0.07;93.58;101062.25;5014448;28;20450;-80
2024/01/21 08:27:10;;;;;;;34.00;18.42;;;;;;;0.18;92.49;101059.06;5014414;28;20033;-80
2024/01/21 08:29:39;;;;;;;32.47;17.77;;;;;;;0.32;91.86;101059.28;5014232;28;20014;-80
2024/01/21 08:32:07;;;;;;;30.63;16.95;;;;;;;0.36;90.42;101060.22;4979715;28;20080;-80
2024/01/21 08:34:33;;;;;;;29.55;19.20;;;;;;;0.50;89.90;101056.16;5014050;28;20049;-80
2024/01/21 08:36:58;;;;;;;29.50;16.60;;;;;;;0.44;89.42;101054.38;5015032;28;20057;-80
2024/01/21 08:39:24;;;;;;;49.40;25.58;;;;;;;0.32;89.04;101053.31;5015365;28;20029;-79
2024/01/21 08:41:50;;;;;;;33.55;16.10;;;;;;;0.32;89.23;101051.59;5014907;28;20508;-80
2024/01/21 08:44:25;;;;;;;32.65;15.55;;;;;;;0.32;89.38;101053.31;5017596;28;20006;-80
2024/01/21 08:46:59;;;;;;;30.23;15.38;;;;;;;0.33;88.67;101062.72;5002370;28;20026;-80
2024/01/21 08:49:26;;;;;;;200.93;107.18;;;;;;;0.36;88.93;101063.63;5016046;28;20061;-80
2024/01/21 08:51:51;;;;;;;33.85;17.60;;;;;;;0.34;88.91;101061.88;5016445;28;20549;-80
2024/01/21 08:54:17;;;;;;;33.20;16.90;;;;;;;0.30;88.42;101057.56;5016084;28;20057;-80
2024/01/21 08:56:45;;;;;;;56.78;31.27;;;;;;;0.21;88.21;101053.09;5014514;28;20021;-79
2024/01/21 08:59:11;;;;;;;32.38;18.30;;;;;;;0.14;88.49;101054.72;4999056;28;20026;-79
2024/01/21 09:01:36;;;;;;;34.20;17.23;;;;;;;0.04;88.45;101046.81;5014937;28;20067;-81
2024/01/21 09:04:02;;;;;;;38.05;21.30;;;;;;;0.04;88.23;101047.66;5015478;28;20032;-81
2024/01/21 09:06:28;;;;;;;30.05;17.55;;;;;;;-0.02;88.99;101052.69;4999257;28;20453;-80
2024/01/21 09:08:54;;;;;;;36.90;17.10;;;;;;;-0.08;89.22;101040.66;5014574;28;20028;-80
2024/01/21 09:11:21;;;;;;;32.17;16.88;;;;;;;-0.30;88.81;101015.44;5013607;28;20049;-80
2024/01/21 09:13:46;;;;;;;32.70;17.92;;;;;;;-0.24;89.32;101045.44;5014358;28;20030;-80
2024/01/21 09:16:16;;;;;;;33.90;19.30;;;;;;;-0.24;89.31;101059.09;5013934;28;20124;-80
2024/01/21 09:18:42;;;;;;;30.58;17.73;;;;;;;-0.27;89.73;101059.91;5013755;28;20029;-80
2024/01/21 09:21:07;;;;;;;35.47;18.70;;;;;;;-0.21;89.45;101054.06;5013777;28;20072;-80
2024/01/21 09:23:33;;;;;;;35.67;19.20;;;;;;;-0.22;89.40;101038.63;5013963;28;20021;-79
2024/01/21 09:25:58;;;;;;;39.30;18.02;;;;;;;-0.18;89.71;101048.09;5013637;28;20457;-79
2024/01/21 09:28:24;;;;;;;31.23;17.88;;;;;;;-0.27;89.50;101030.88;5013534;28;20033;-81
2024/01/21 09:30:49;;;;;;;38.15;18.77;;;;;;;-0.30;89.82;101043.59;5013779;28;20025;-80
2024/01/21 09:33:15;;;;;;;39.22;17.88;;;;;;;-0.41;89.96;101022.94;5013352;28;20044;-80
2024/01/21 09:35:40;;;;;;;35.83;18.40;;;;;;;-0.31;89.56;101045.31;4994989;28;20026;-80
2024/01/21 09:38:06;;;;;;;34.80;19.20;;;;;;;-0.33;90.37;101043.56;5013332;28;20125;-80
2024/01/21 09:40:31;;;;;;;32.58;18.08;;;;;;;-0.41;89.63;101025.50;5012748;28;20018;-80
2024/01/21 09:42:57;;;;;;;34.88;18.85;;;;;;;-0.37;90.24;101024.72;4962386;28;20073;-80
2024/01/21 09:45:24;;;;;;;34.85;19.08;;;;;;;-0.30;89.91;101028.25;5012781;28;20116;-80
2024/01/21 09:47:52;;;;;;;33.10;17.17;;;;;;;-0.28;89.99;101019.78;5012968;28;20032;-80
2024/01/21 09:50:20;;;;;;;36.70;17.55;;;;;;;-0.21;90.42;101023.31;5013512;28;20022;-80
2024/01/21 09:52:45;;;;;;;31.58;17.35;;;;;;;-0.19;90.02;101023.34;5012761;28;20029;-80
2024/01/21 09:55:11;;;;;;;118.50;53.70;;;;;;;-0.13;90.04;101011.50;5013840;28;20018;-79
2024/01/21 09:57:38;;;;;;;33.17;17.52;;;;;;;-0.09;89.68;101012.44;5012855;28;20029;-79
2024/01/21 10:00:06;;;;;;;41.28;22.00;;;;;;;-0.05;90.05;100999.69;5012621;28;20105;-80
2024/01/21 10:02:33;;;;;;;35.65;17.73;;;;;;;0.05;90.14;101007.56;4995635;28;20022;-80
2024/01/21 10:04:58;;;;;;;34.92;17.88;;;;;;;-0.04;89.59;100978.41;5012931;28;20117;-80
2024/01/21 10:07:25;;;;;;;34.78;17.38;;;;;;;0.05;88.98;100992.22;5012695;28;20615;-80
2024/01/21 10:09:57;;;;;;;29.83;16.77;;;;;;;0.17;89.37;100994.94;5012651;28;20018;-80
2024/01/21 10:12:26;;;;;;;30.95;15.85;;;;;;;0.21;89.38;100991.59;5012430;28;20046;-81
2024/01/21 10:14:52;;;;;;;27.83;15.98;;;;;;;0.28;88.75;100990.88;5012805;28;20373;-81
2024/01/21 10:17:24;;;;;;;43.65;22.48;;;;;;;0.33;89.01;100979.00;5012847;28;20029;-79
2024/01/21 10:19:53;;;;;;;31.80;16.38;;;;;;;0.42;88.28;100984.31;5012743;28;20022;-80
2024/01/21 10:22:18;;;;;;;28.05;15.05;;;;;;;0.51;88.42;100983.59;5012619;28;20564;-81
2024/01/21 10:24:46;;;;;;;30.67;16.23;;;;;;;0.54;87.52;100977.63;5012744;28;20094;-82
2024/01/21 10:27:12;;;;;;;31.13;16.77;;;;;;;0.68;87.51;100983.84;5012970;28;20029;-80
2024/01/21 10:29:41;;;;;;;28.90;16.60;;;;;;;0.84;87.47;100988.31;5012580;28;20381;-82
2024/01/21 10:32:09;;;;;;;25.45;14.48;;;;;;;1.00;87.54;100986.84;5012916;28;20095;-80
2024/01/21 10:34:49;;;;;;;32.72;16.23;;;;;;;1.11;87.01;100967.34;5013640;28;20113;-81
2024/01/21 10:37:15;;;;;;;31.65;15.65;;;;;;;1.26;86.36;100964.09;5013528;28;20104;-82
2024/01/21 10:39:44;;;;;;;28.50;14.57;;;;;;;1.39;86.12;100971.13;5013735;28;20018;-81
2024/01/21 10:42:11;;;;;;;30.58;15.88;;;;;;;1.50;85.83;100955.81;5013829;28;20025;-81
2024/01/21 10:44:40;;;;;;;31.25;16.40;;;;;;;1.59;85.54;100952.50;4995202;28;20030;-81
2024/01/21 10:47:08;;;;;;;27.92;16.27;;;;;;;1.61;85.09;100950.81;5013650;28;20021;-81
2024/01/21 10:49:33;;;;;;;27.67;18.40;;;;;;;1.63;84.96;100946.53;5016549;28;20026;-82
2024/01/21 10:51:59;;;;;;;26.73;14.25;;;;;;;1.69;84.49;100960.31;5016670;28;20376;-81
2024/01/21 10:54:25;;;;;;;25.33;14.55;;;;;;;1.70;84.72;100940.63;5016171;28;20071;-81
2024/01/21 10:56:50;;;;;;;35.97;18.13;;;;;;;1.81;84.12;100956.13;5017350;28;20049;-82
2024/01/21 10:59:16;;;;;;;27.13;15.95;;;;;;;1.71;84.15;100925.22;5019696;28;20017;-81
2024/01/21 11:01:43;;;;;;;32.75;16.13;;;;;;;1.91;83.86;100943.41;5016937;28;20100;-82
2024/01/21 11:04:12;;;;;;;28.67;15.27;;;;;;;1.93;83.70;100931.44;5016666;28;20497;-81
2024/01/21 11:06:46;;;;;;;37.08;18.25;;;;;;;2.06;83.66;100941.81;5016172;28;20369;-81
2024/01/21 11:09:16;;;;;;;38.50;19.17;;;;;;;2.09;83.49;100945.28;4983257;28;20033;-79
2024/01/21 11:11:44;;;;;;;42.72;20.67;;;;;;;2.07;83.31;100946.13;4961597;28;20050;-79
2024/01/21 11:14:36;;;;;;;27.23;14.25;;;;;;;2.15;82.86;100947.03;4996680;28;20101;-80
2024/01/21 11:17:02;;;;;;;;;;;;;;;2.20;83.07;100943.66;4994869;28;20030;-79
2024/01/21 11:19:54;;;;;;;23.90;11.70;;;;;;;2.15;82.74;100942.78;4996601;28;19912;-80
2024/01/21 11:22:21;;;;;;;;;;;;;;;2.18;82.70;100944.50;4902172;29;20472;-82
2024/01/21 11:24:47;;;;;;;35.45;13.30;;;;;;;2.22;82.89;100938.53;4917775;29;19918;-84
2024/01/21 12:49:39;;;;;;;11.70;6.80;;;;;;;19.09;63.02;100765.28;5091079;27;20358;-75
2024/01/21 12:52:04;;;;;;;12.65;5.88;;;;;;;19.30;61.36;100759.53;5090581;28;20035;-76
